sensor_id;sensor_type;location;lat;lon;timestamp;P1;durP1;ratioP1;P2;durP2;ratioP2
69392;SDS011;56582;44.624;20.378;2022-08-19T00:01:52;7.78;;;4.63;;
69392;SDS011;56582;44.624;20.378;2022-08-19T00:04:20;11.18;;;4.93;;
69392;SDS011;56582;44.624;20.378;2022-08-19T00:06:47;7.32;;;4.40;;
69392;SDS011;56582;44.624;20.378;2022-08-19T00:09:14;9.03;;;4.03;;
69392;SDS011;56582;44.624;20.378;2022-08-19T00:11:41;9.68;;;4.28;;
69392;SDS011;56582;44.624;20.378;2022-08-19T00:14:09;7.43;;;4.63;;
69392;SDS011;56582;44.624;20.378;2022-08-19T00:16:39;9.73;;;4.55;;
69392;SDS011;56582;44.624;20.378;2022-08-19T00:19:06;7.17;;;4.27;;
69392;SDS011;56582;44.624;20.378;2022-08-19T00:21:33;7.20;;;4.35;;
69392;SDS011;56582;44.624;20.378;2022-08-19T00:24:03;7.68;;;4.43;;
69392;SDS011;56582;44.624;20.378;2022-08-19T00:26:29;8.25;;;4.65;;
69392;SDS011;56582;44.624;20.378;2022-08-19T00:28:54;9.50;;;4.40;;
69392;SDS011;56582;44.624;20.378;2022-08-19T00:31:20;9.63;;;5.07;;
69392;SDS011;56582;44.624;20.378;2022-08-19T00:33:46;8.50;;;4.40;;
69392;SDS011;56582;44.624;20.378;2022-08-19T00:36:12;7.28;;;4.70;;
69392;SDS011;56582;44.624;20.378;2022-08-19T00:38:38;8.33;;;4.50;;
69392;SDS011;56582;44.624;20.378;2022-08-19T00:41:07;8.65;;;4.82;;
69392;SDS011;56582;44.624;20.378;2022-08-19T00:43:34;6.25;;;4.45;;
69392;SDS011;56582;44.624;20.378;2022-08-19T00:46:00;5.87;;;4.40;;
69392;SDS011;56582;44.624;20.378;2022-08-19T00:48:29;7.60;;;4.22;;
69392;SDS011;56582;44.624;20.378;2022-08-19T00:50:56;6.82;;;4.45;;
69392;SDS011;56582;44.624;20.378;2022-08-19T00:53:23;7.25;;;4.50;;
69392;SDS011;56582;44.624;20.378;2022-08-19T00:55:52;6.90;;;4.40;;
69392;SDS011;56582;44.624;20.378;2022-08-19T00:58:20;6.57;;;4.37;;
69392;SDS011;56582;44.624;20.378;2022-08-19T01:00:49;8.50;;;4.00;;
69392;SDS011;56582;44.624;20.378;2022-08-19T01:03:17;7.43;;;4.20;;
69392;SDS011;56582;44.624;20.378;2022-08-19T01:05:44;8.40;;;4.67;;
69392;SDS011;56582;44.624;20.378;2022-08-19T01:08:12;8.10;;;4.50;;
69392;SDS011;56582;44.624;20.378;2022-08-19T01:10:42;8.73;;;4.20;;
69392;SDS011;56582;44.624;20.378;2022-08-19T01:13:11;6.93;;;4.60;;
69392;SDS011;56582;44.624;20.378;2022-08-19T01:15:42;7.55;;;4.57;;
69392;SDS011;56582;44.624;20.378;2022-08-19T01:18:11;8.77;;;4.70;;
69392;SDS011;56582;44.624;20.378;2022-08-19T01:20:39;7.50;;;4.30;;
69392;SDS011;56582;44.624;20.378;2022-08-19T01:23:06;7.55;;;4.65;;
69392;SDS011;56582;44.624;20.378;2022-08-19T01:25:35;7.07;;;4.28;;
69392;SDS011;56582;44.624;20.378;2022-08-19T01:28:06;7.57;;;5.05;;
69392;SDS011;56582;44.624;20.378;2022-08-19T01:30:33;7.17;;;4.70;;
69392;SDS011;56582;44.624;20.378;2022-08-19T01:33:01;8.95;;;4.47;;
69392;SDS011;56582;44.624;20.378;2022-08-19T01:35:30;6.75;;;4.30;;
69392;SDS011;56582;44.624;20.378;2022-08-19T01:37:58;6.82;;;4.45;;
69392;SDS011;56582;44.624;20.378;2022-08-19T01:40:27;7.85;;;4.72;;
69392;SDS011;56582;44.624;20.378;2022-08-19T01:42:56;7.03;;;4.43;;
69392;SDS011;56582;44.624;20.378;2022-08-19T01:45:26;6.82;;;4.68;;
69392;SDS011;56582;44.624;20.378;2022-08-19T01:47:53;7.65;;;4.72;;
69392;SDS011;56582;44.624;20.378;2022-08-19T01:50:19;6.25;;;4.00;;
69392;SDS011;56582;44.624;20.378;2022-08-19T01:52:45;7.78;;;4.50;;
69392;SDS011;56582;44.624;20.378;2022-08-19T01:55:13;7.63;;;4.37;;
69392;SDS011;56582;44.624;20.378;2022-08-19T01:57:41;7.97;;;5.13;;
69392;SDS011;56582;44.624;20.378;2022-08-19T02:00:12;7.50;;;4.60;;
69392;SDS011;56582;44.624;20.378;2022-08-19T02:02:40;11.70;;;5.00;;
69392;SDS011;56582;44.624;20.378;2022-08-19T02:05:06;8.60;;;4.80;;
69392;SDS011;56582;44.624;20.378;2022-08-19T02:07:33;7.43;;;5.00;;
69392;SDS011;56582;44.624;20.378;2022-08-19T02:10:02;8.35;;;4.80;;
69392;SDS011;56582;44.624;20.378;2022-08-19T02:12:29;7.18;;;4.65;;
69392;SDS011;56582;44.624;20.378;2022-08-19T02:14:55;7.13;;;4.47;;
69392;SDS011;56582;44.624;20.378;2022-08-19T02:17:20;7.43;;;4.75;;
69392;SDS011;56582;44.624;20.378;2022-08-19T02:19:46;9.37;;;4.57;;
69392;SDS011;56582;44.624;20.378;2022-08-19T02:22:13;9.07;;;4.40;;
69392;SDS011;56582;44.624;20.378;2022-08-19T02:24:39;7.40;;;4.67;;
69392;SDS011;56582;44.624;20.378;2022-08-19T02:27:05;5.77;;;3.87;;
69392;SDS011;56582;44.624;20.378;2022-08-19T02:29:30;6.72;;;5.20;;
69392;SDS011;56582;44.624;20.378;2022-08-19T02:31:56;8.50;;;5.10;;
69392;SDS011;56582;44.624;20.378;2022-08-19T02:34:22;6.87;;;4.53;;
69392;SDS011;56582;44.624;20.378;2022-08-19T02:36:50;7.85;;;5.32;;
69392;SDS011;56582;44.624;20.378;2022-08-19T02:39:16;7.68;;;4.95;;
69392;SDS011;56582;44.624;20.378;2022-08-19T02:41:41;7.23;;;4.40;;
69392;SDS011;56582;44.624;20.378;2022-08-19T02:44:07;7.00;;;4.37;;
69392;SDS011;56582;44.624;20.378;2022-08-19T02:46:32;8.80;;;4.55;;
69392;SDS011;56582;44.624;20.378;2022-08-19T02:49:02;7.77;;;4.90;;
69392;SDS011;56582;44.624;20.378;2022-08-19T02:51:31;7.97;;;4.63;;
69392;SDS011;56582;44.624;20.378;2022-08-19T02:54:03;6.95;;;4.65;;
69392;SDS011;56582;44.624;20.378;2022-08-19T02:56:30;8.85;;;4.85;;
69392;SDS011;56582;44.624;20.378;2022-08-19T02:58:56;7.63;;;4.10;;
69392;SDS011;56582;44.624;20.378;2022-08-19T03:01:23;7.43;;;4.65;;
69392;SDS011;56582;44.624;20.378;2022-08-19T03:03:51;7.07;;;4.60;;
69392;SDS011;56582;44.624;20.378;2022-08-19T03:06:17;8.60;;;4.90;;
69392;SDS011;56582;44.624;20.378;2022-08-19T03:08:45;8.73;;;4.77;;
69392;SDS011;56582;44.624;20.378;2022-08-19T03:11:12;8.80;;;4.38;;
69392;SDS011;56582;44.624;20.378;2022-08-19T03:13:39;7.00;;;4.18;;
69392;SDS011;56582;44.624;20.378;2022-08-19T03:16:05;7.33;;;4.70;;
69392;SDS011;56582;44.624;20.378;2022-08-19T03:18:30;7.55;;;4.50;;
69392;SDS011;56582;44.624;20.378;2022-08-19T03:20:56;8.83;;;4.87;;
69392;SDS011;56582;44.624;20.378;2022-08-19T03:23:22;7.00;;;4.75;;
69392;SDS011;56582;44.624;20.378;2022-08-19T03:25:49;7.40;;;5.00;;
69392;SDS011;56582;44.624;20.378;2022-08-19T03:28:15;8.57;;;4.60;;
69392;SDS011;56582;44.624;20.378;2022-08-19T03:30:42;6.72;;;4.32;;
69392;SDS011;56582;44.624;20.378;2022-08-19T03:33:20;6.80;;;4.53;;
69392;SDS011;56582;44.624;20.378;2022-08-19T03:35:46;6.93;;;4.63;;
69392;SDS011;56582;44.624;20.378;2022-08-19T03:38:12;10.80;;;4.47;;
69392;SDS011;56582;44.624;20.378;2022-08-19T03:40:37;7.67;;;5.13;;
69392;SDS011;56582;44.624;20.378;2022-08-19T03:43:02;7.53;;;4.40;;
69392;SDS011;56582;44.624;20.378;2022-08-19T03:45:28;7.35;;;4.78;;
69392;SDS011;56582;44.624;20.378;2022-08-19T03:47:54;11.43;;;5.40;;
69392;SDS011;56582;44.624;20.378;2022-08-19T03:50:20;13.38;;;5.38;;
69392;SDS011;56582;44.624;20.378;2022-08-19T03:52:49;11.20;;;5.03;;
69392;SDS011;56582;44.624;20.378;2022-08-19T03:55:16;7.32;;;4.78;;
69392;SDS011;56582;44.624;20.378;2022-08-19T03:57:42;8.43;;;4.95;;
69392;SDS011;56582;44.624;20.378;2022-08-19T04:00:08;8.17;;;4.63;;
69392;SDS011;56582;44.624;20.378;2022-08-19T04:02:34;9.98;;;4.72;;
69392;SDS011;56582;44.624;20.378;2022-08-19T04:04:59;7.50;;;4.63;;
69392;SDS011;56582;44.624;20.378;2022-08-19T04:07:25;7.82;;;4.20;;
69392;SDS011;56582;44.624;20.378;2022-08-19T04:09:51;7.43;;;4.63;;
69392;SDS011;56582;44.624;20.378;2022-08-19T04:12:17;8.63;;;4.57;;
69392;SDS011;56582;44.624;20.378;2022-08-19T04:14:42;7.67;;;5.10;;
69392;SDS011;56582;44.624;20.378;2022-08-19T04:17:07;7.53;;;4.67;;
69392;SDS011;56582;44.624;20.378;2022-08-19T04:19:34;7.57;;;4.43;;
69392;SDS011;56582;44.624;20.378;2022-08-19T04:22:00;7.22;;;4.80;;
69392;SDS011;56582;44.624;20.378;2022-08-19T04:24:26;8.30;;;4.80;;
69392;SDS011;56582;44.624;20.378;2022-08-19T04:26:52;8.18;;;5.25;;
69392;SDS011;56582;44.624;20.378;2022-08-19T04:29:20;8.73;;;5.03;;
69392;SDS011;56582;44.624;20.378;2022-08-19T04:31:50;8.63;;;5.03;;
69392;SDS011;56582;44.624;20.378;2022-08-19T04:34:19;6.57;;;4.38;;
69392;SDS011;56582;44.624;20.378;2022-08-19T04:36:47;7.32;;;4.53;;
69392;SDS011;56582;44.624;20.378;2022-08-19T04:39:16;8.03;;;4.43;;
69392;SDS011;56582;44.624;20.378;2022-08-19T04:41:44;6.78;;;4.40;;
69392;SDS011;56582;44.624;20.378;2022-08-19T04:44:29;7.57;;;4.45;;
69392;SDS011;56582;44.624;20.378;2022-08-19T04:46:58;7.07;;;4.13;;
69392;SDS011;56582;44.624;20.378;2022-08-19T04:49:25;7.32;;;4.45;;
69392;SDS011;56582;44.624;20.378;2022-08-19T04:51:51;7.73;;;4.57;;
69392;SDS011;56582;44.624;20.378;2022-08-19T04:54:19;8.82;;;4.95;;
69392;SDS011;56582;44.624;20.378;2022-08-19T04:56:47;8.48;;;5.32;;
69392;SDS011;56582;44.624;20.378;2022-08-19T04:59:17;9.10;;;4.97;;
69392;SDS011;56582;44.624;20.378;2022-08-19T05:01:44;11.45;;;5.45;;
69392;SDS011;56582;44.624;20.378;2022-08-19T05:04:14;7.57;;;5.25;;
69392;SDS011;56582;44.624;20.378;2022-08-19T05:06:40;9.23;;;5.50;;
69392;SDS011;56582;44.624;20.378;2022-08-19T05:09:06;9.87;;;5.17;;
69392;SDS011;56582;44.624;20.378;2022-08-19T05:11:32;9.07;;;5.20;;
69392;SDS011;56582;44.624;20.378;2022-08-19T05:14:00;6.53;;;5.10;;
69392;SDS011;56582;44.624;20.378;2022-08-19T05:16:26;9.68;;;5.53;;
69392;SDS011;56582;44.624;20.378;2022-08-19T05:18:53;8.55;;;5.20;;
69392;SDS011;56582;44.624;20.378;2022-08-19T05:21:38;7.53;;;5.40;;
69392;SDS011;56582;44.624;20.378;2022-08-19T05:24:23;7.17;;;5.53;;
69392;SDS011;56582;44.624;20.378;2022-08-19T05:26:50;7.75;;;5.68;;
69392;SDS011;56582;44.624;20.378;2022-08-19T05:29:17;11.05;;;5.60;;
69392;SDS011;56582;44.624;20.378;2022-08-19T05:31:45;8.73;;;5.38;;
69392;SDS011;56582;44.624;20.378;2022-08-19T05:34:14;8.00;;;5.85;;
69392;SDS011;56582;44.624;20.378;2022-08-19T05:36:41;10.90;;;5.60;;
69392;SDS011;56582;44.624;20.378;2022-08-19T05:39:10;8.45;;;5.28;;
69392;SDS011;56582;44.624;20.378;2022-08-19T05:41:42;10.93;;;5.88;;
69392;SDS011;56582;44.624;20.378;2022-08-19T05:44:13;10.20;;;6.25;;
69392;SDS011;56582;44.624;20.378;2022-08-19T05:46:40;9.60;;;5.88;;
69392;SDS011;56582;44.624;20.378;2022-08-19T05:49:08;8.47;;;5.80;;
69392;SDS011;56582;44.624;20.378;2022-08-19T05:51:34;12.05;;;5.97;;
69392;SDS011;56582;44.624;20.378;2022-08-19T05:54:02;8.70;;;6.10;;
69392;SDS011;56582;44.624;20.378;2022-08-19T05:56:29;8.63;;;6.43;;
69392;SDS011;56582;44.624;20.378;2022-08-19T05:59:02;9.43;;;6.43;;
69392;SDS011;56582;44.624;20.378;2022-08-19T06:01:27;9.05;;;6.60;;
69392;SDS011;56582;44.624;20.378;2022-08-19T06:03:53;8.17;;;6.43;;
69392;SDS011;56582;44.624;20.378;2022-08-19T06:06:18;9.67;;;6.67;;
69392;SDS011;56582;44.624;20.378;2022-08-19T06:08:45;9.30;;;6.50;;
69392;SDS011;56582;44.624;20.378;2022-08-19T06:11:31;10.52;;;6.47;;
69392;SDS011;56582;44.624;20.378;2022-08-19T06:14:00;9.52;;;6.07;;
69392;SDS011;56582;44.624;20.378;2022-08-19T06:16:29;8.68;;;6.60;;
69392;SDS011;56582;44.624;20.378;2022-08-19T06:18:59;7.43;;;6.30;;
69392;SDS011;56582;44.624;20.378;2022-08-19T06:21:26;10.00;;;6.63;;
69392;SDS011;56582;44.624;20.378;2022-08-19T06:23:54;8.57;;;6.43;;
69392;SDS011;56582;44.624;20.378;2022-08-19T06:26:21;9.75;;;7.20;;
69392;SDS011;56582;44.624;20.378;2022-08-19T06:28:47;8.80;;;6.40;;
69392;SDS011;56582;44.624;20.378;2022-08-19T06:31:14;9.13;;;6.50;;
69392;SDS011;56582;44.624;20.378;2022-08-19T06:33:43;9.48;;;5.82;;
69392;SDS011;56582;44.624;20.378;2022-08-19T06:36:20;8.23;;;6.57;;
69392;SDS011;56582;44.624;20.378;2022-08-19T06:38:46;9.10;;;6.25;;
69392;SDS011;56582;44.624;20.378;2022-08-19T06:41:12;10.18;;;5.97;;
69392;SDS011;56582;44.624;20.378;2022-08-19T06:43:37;10.83;;;6.20;;
69392;SDS011;56582;44.624;20.378;2022-08-19T06:46:03;9.30;;;5.70;;
69392;SDS011;56582;44.624;20.378;2022-08-19T06:48:29;8.77;;;5.55;;
69392;SDS011;56582;44.624;20.378;2022-08-19T06:50:55;8.95;;;6.18;;
69392;SDS011;56582;44.624;20.378;2022-08-19T06:53:21;7.47;;;5.67;;
69392;SDS011;56582;44.624;20.378;2022-08-19T06:55:47;10.10;;;6.13;;
69392;SDS011;56582;44.624;20.378;2022-08-19T06:58:12;8.63;;;5.70;;
69392;SDS011;56582;44.624;20.378;2022-08-19T07:00:39;8.00;;;5.55;;
69392;SDS011;56582;44.624;20.378;2022-08-19T07:03:04;9.47;;;5.53;;
69392;SDS011;56582;44.624;20.378;2022-08-19T07:05:30;8.20;;;5.63;;
69392;SDS011;56582;44.624;20.378;2022-08-19T07:07:55;8.38;;;5.28;;
69392;SDS011;56582;44.624;20.378;2022-08-19T07:10:21;9.80;;;5.97;;
69392;SDS011;56582;44.624;20.378;2022-08-19T07:12:47;7.57;;;4.90;;
69392;SDS011;56582;44.624;20.378;2022-08-19T07:15:14;9.02;;;5.40;;
69392;SDS011;56582;44.624;20.378;2022-08-19T07:17:41;8.10;;;5.00;;
69392;SDS011;56582;44.624;20.378;2022-08-19T07:20:08;7.32;;;5.97;;
69392;SDS011;56582;44.624;20.378;2022-08-19T07:22:35;7.25;;;5.53;;
69392;SDS011;56582;44.624;20.378;2022-08-19T07:25:02;7.57;;;5.63;;
69392;SDS011;56582;44.624;20.378;2022-08-19T07:27:29;8.05;;;4.97;;
69392;SDS011;56582;44.624;20.378;2022-08-19T07:29:54;9.87;;;5.37;;
69392;SDS011;56582;44.624;20.378;2022-08-19T07:32:20;6.67;;;4.80;;
69392;SDS011;56582;44.624;20.378;2022-08-19T07:34:45;8.38;;;5.25;;
69392;SDS011;56582;44.624;20.378;2022-08-19T07:37:11;8.20;;;5.23;;
69392;SDS011;56582;44.624;20.378;2022-08-19T07:39:37;8.33;;;5.60;;
69392;SDS011;56582;44.624;20.378;2022-08-19T07:42:05;7.22;;;5.30;;
69392;SDS011;56582;44.624;20.378;2022-08-19T07:44:34;8.80;;;4.70;;
69392;SDS011;56582;44.624;20.378;2022-08-19T07:47:00;9.10;;;5.35;;
69392;SDS011;56582;44.624;20.378;2022-08-19T07:49:26;7.30;;;4.20;;
69392;SDS011;56582;44.624;20.378;2022-08-19T07:51:59;8.15;;;5.30;;
69392;SDS011;56582;44.624;20.378;2022-08-19T07:54:27;8.13;;;5.22;;
69392;SDS011;56582;44.624;20.378;2022-08-19T07:56:55;7.25;;;4.70;;
69392;SDS011;56582;44.624;20.378;2022-08-19T07:59:21;8.17;;;4.27;;
69392;SDS011;56582;44.624;20.378;2022-08-19T08:01:47;6.65;;;4.63;;
69392;SDS011;56582;44.624;20.378;2022-08-19T08:04:13;9.60;;;4.40;;
69392;SDS011;56582;44.624;20.378;2022-08-19T08:06:57;9.93;;;4.28;;
69392;SDS011;56582;44.624;20.378;2022-08-19T08:09:42;11.25;;;4.65;;
69392;SDS011;56582;44.624;20.378;2022-08-19T08:12:10;7.72;;;4.43;;
69392;SDS011;56582;44.624;20.378;2022-08-19T08:14:49;8.07;;;4.70;;
69392;SDS011;56582;44.624;20.378;2022-08-19T08:17:17;9.03;;;4.67;;
69392;SDS011;56582;44.624;20.378;2022-08-19T08:19:45;6.82;;;4.72;;
69392;SDS011;56582;44.624;20.378;2022-08-19T08:22:11;9.20;;;4.70;;
69392;SDS011;56582;44.624;20.378;2022-08-19T08:25:32;9.10;;;4.60;;
69392;SDS011;56582;44.624;20.378;2022-08-19T08:27:50;8.25;;;4.68;;
69392;SDS011;56582;44.624;20.378;2022-08-19T08:30:18;6.33;;;4.70;;
69392;SDS011;56582;44.624;20.378;2022-08-19T08:32:45;8.45;;;5.00;;
69392;SDS011;56582;44.624;20.378;2022-08-19T08:35:13;10.73;;;5.30;;
69392;SDS011;56582;44.624;20.378;2022-08-19T08:37:43;9.60;;;5.32;;
69392;SDS011;56582;44.624;20.378;2022-08-19T08:40:18;6.13;;;4.37;;
69392;SDS011;56582;44.624;20.378;2022-08-19T08:42:46;9.20;;;4.82;;
69392;SDS011;56582;44.624;20.378;2022-08-19T08:45:47;6.93;;;4.57;;
69392;SDS011;56582;44.624;20.378;2022-08-19T08:48:27;10.20;;;4.80;;
69392;SDS011;56582;44.624;20.378;2022-08-19T08:50:59;7.88;;;5.05;;
69392;SDS011;56582;44.624;20.378;2022-08-19T08:53:29;7.93;;;5.03;;
69392;SDS011;56582;44.624;20.378;2022-08-19T08:55:56;6.43;;;4.50;;
69392;SDS011;56582;44.624;20.378;2022-08-19T08:58:31;7.20;;;4.68;;
69392;SDS011;56582;44.624;20.378;2022-08-19T09:00:58;8.95;;;4.63;;
69392;SDS011;56582;44.624;20.378;2022-08-19T09:03:26;9.17;;;5.03;;
69392;SDS011;56582;44.624;20.378;2022-08-19T09:06:00;6.35;;;4.07;;
69392;SDS011;56582;44.624;20.378;2022-08-19T09:16:45;8.93;;;4.73;;
69392;SDS011;56582;44.624;20.378;2022-08-19T09:19:10;9.43;;;4.70;;
69392;SDS011;56582;44.624;20.378;2022-08-19T09:21:36;7.83;;;4.53;;
69392;SDS011;56582;44.624;20.378;2022-08-19T09:24:03;7.45;;;4.03;;
69392;SDS011;56582;44.624;20.378;2022-08-19T09:26:30;11.32;;;4.78;;
69392;SDS011;56582;44.624;20.378;2022-08-19T09:28:57;7.87;;;4.17;;
69392;SDS011;56582;44.624;20.378;2022-08-19T09:31:25;8.82;;;4.45;;
69392;SDS011;56582;44.624;20.378;2022-08-19T09:33:53;8.30;;;4.20;;
69392;SDS011;56582;44.624;20.378;2022-08-19T09:36:22;6.85;;;3.97;;
69392;SDS011;56582;44.624;20.378;2022-08-19T09:38:50;11.00;;;4.60;;
69392;SDS011;56582;44.624;20.378;2022-08-19T09:41:17;10.50;;;4.57;;
69392;SDS011;56582;44.624;20.378;2022-08-19T09:43:47;6.80;;;4.10;;
69392;SDS011;56582;44.624;20.378;2022-08-19T09:46:16;7.03;;;4.13;;
69392;SDS011;56582;44.624;20.378;2022-08-19T09:48:44;11.40;;;4.32;;
69392;SDS011;56582;44.624;20.378;2022-08-19T09:51:13;8.85;;;3.83;;
69392;SDS011;56582;44.624;20.378;2022-08-19T09:53:40;7.80;;;3.87;;
69392;SDS011;56582;44.624;20.378;2022-08-19T09:56:07;8.80;;;3.88;;
69392;SDS011;56582;44.624;20.378;2022-08-19T09:58:33;7.88;;;4.35;;
69392;SDS011;56582;44.624;20.378;2022-08-19T10:01:00;8.93;;;4.57;;
69392;SDS011;56582;44.624;20.378;2022-08-19T10:03:27;9.37;;;4.27;;
69392;SDS011;56582;44.624;20.378;2022-08-19T10:05:53;9.02;;;4.72;;
69392;SDS011;56582;44.624;20.378;2022-08-19T10:08:21;9.85;;;4.50;;
69392;SDS011;56582;44.624;20.378;2022-08-19T10:10:52;9.45;;;4.47;;
69392;SDS011;56582;44.624;20.378;2022-08-19T10:13:19;9.77;;;4.15;;
69392;SDS011;56582;44.624;20.378;2022-08-19T10:15:50;7.33;;;4.20;;
69392;SDS011;56582;44.624;20.378;2022-08-19T10:18:17;8.32;;;4.18;;
69392;SDS011;56582;44.624;20.378;2022-08-19T10:20:46;7.97;;;4.72;;
69392;SDS011;56582;44.624;20.378;2022-08-19T10:23:12;7.93;;;4.20;;
69392;SDS011;56582;44.624;20.378;2022-08-19T10:25:40;9.55;;;4.20;;
69392;SDS011;56582;44.624;20.378;2022-08-19T10:28:06;7.67;;;3.67;;
69392;SDS011;56582;44.624;20.378;2022-08-19T10:30:32;8.90;;;4.25;;
69392;SDS011;56582;44.624;20.378;2022-08-19T10:33:00;8.20;;;4.38;;
69392;SDS011;56582;44.624;20.378;2022-08-19T10:35:25;9.33;;;4.00;;
69392;SDS011;56582;44.624;20.378;2022-08-19T10:37:54;9.30;;;4.60;;
69392;SDS011;56582;44.624;20.378;2022-08-19T10:40:23;9.75;;;4.50;;
69392;SDS011;56582;44.624;20.378;2022-08-19T10:42:50;7.80;;;4.35;;
69392;SDS011;56582;44.624;20.378;2022-08-19T10:45:16;7.83;;;4.10;;
69392;SDS011;56582;44.624;20.378;2022-08-19T10:47:41;10.23;;;4.22;;
69392;SDS011;56582;44.624;20.378;2022-08-19T10:50:07;9.63;;;4.60;;
69392;SDS011;56582;44.624;20.378;2022-08-19T10:52:51;8.95;;;4.43;;
69392;SDS011;56582;44.624;20.378;2022-08-19T10:55:18;8.30;;;4.17;;
69392;SDS011;56582;44.624;20.378;2022-08-19T10:58:09;11.30;;;4.47;;
69392;SDS011;56582;44.624;20.378;2022-08-19T11:00:38;9.73;;;4.43;;
69392;SDS011;56582;44.624;20.378;2022-08-19T11:03:05;8.90;;;4.07;;
69392;SDS011;56582;44.624;20.378;2022-08-19T11:05:31;9.07;;;4.20;;
69392;SDS011;56582;44.624;20.378;2022-08-19T11:07:56;8.65;;;4.50;;
69392;SDS011;56582;44.624;20.378;2022-08-19T11:10:22;6.53;;;3.63;;
69392;SDS011;56582;44.624;20.378;2022-08-19T11:12:48;9.20;;;4.15;;
69392;SDS011;56582;44.624;20.378;2022-08-19T11:15:19;10.30;;;4.00;;
69392;SDS011;56582;44.624;20.378;2022-08-19T11:17:44;11.65;;;4.05;;
69392;SDS011;56582;44.624;20.378;2022-08-19T11:20:13;8.73;;;4.23;;
69392;SDS011;56582;44.624;20.378;2022-08-19T11:22:42;9.18;;;4.40;;
69392;SDS011;56582;44.624;20.378;2022-08-19T11:25:09;13.30;;;4.50;;
69392;SDS011;56582;44.624;20.378;2022-08-19T11:27:39;10.07;;;3.83;;
69392;SDS011;56582;44.624;20.378;2022-08-19T11:30:10;12.60;;;3.90;;
69392;SDS011;56582;44.624;20.378;2022-08-19T11:32:37;12.13;;;4.55;;
69392;SDS011;56582;44.624;20.378;2022-08-19T11:35:02;11.53;;;3.50;;
69392;SDS011;56582;44.624;20.378;2022-08-19T11:37:28;10.82;;;3.92;;
69392;SDS011;56582;44.624;20.378;2022-08-19T11:39:54;10.13;;;3.93;;
69392;SDS011;56582;44.624;20.378;2022-08-19T11:42:19;10.00;;;3.97;;
69392;SDS011;56582;44.624;20.378;2022-08-19T11:45:03;11.77;;;3.70;;
69392;SDS011;56582;44.624;20.378;2022-08-19T11:47:29;8.98;;;3.75;;
69392;SDS011;56582;44.624;20.378;2022-08-19T11:49:55;9.73;;;4.13;;
69392;SDS011;56582;44.624;20.378;2022-08-19T11:52:21;9.33;;;3.60;;
69392;SDS011;56582;44.624;20.378;2022-08-19T11:54:46;9.80;;;3.42;;
69392;SDS011;56582;44.624;20.378;2022-08-19T11:57:12;10.87;;;3.80;;
69392;SDS011;56582;44.624;20.378;2022-08-19T11:59:41;9.45;;;4.00;;
69392;SDS011;56582;44.624;20.378;2022-08-19T12:02:07;9.40;;;3.23;;
69392;SDS011;56582;44.624;20.378;2022-08-19T12:04:32;11.95;;;3.65;;
69392;SDS011;56582;44.624;20.378;2022-08-19T12:06:58;10.30;;;4.10;;
69392;SDS011;56582;44.624;20.378;2022-08-19T12:09:23;10.23;;;4.00;;
69392;SDS011;56582;44.624;20.378;2022-08-19T12:11:48;11.37;;;4.07;;
69392;SDS011;56582;44.624;20.378;2022-08-19T12:14:15;9.93;;;3.60;;
69392;SDS011;56582;44.624;20.378;2022-08-19T12:16:43;9.17;;;3.90;;
69392;SDS011;56582;44.624;20.378;2022-08-19T12:19:11;12.25;;;3.50;;
69392;SDS011;56582;44.624;20.378;2022-08-19T12:21:36;11.23;;;4.30;;
69392;SDS011;56582;44.624;20.378;2022-08-19T12:24:03;11.63;;;3.97;;
69392;SDS011;56582;44.624;20.378;2022-08-19T12:26:30;12.90;;;3.58;;
69392;SDS011;56582;44.624;20.378;2022-08-19T12:28:56;13.23;;;4.27;;
69392;SDS011;56582;44.624;20.378;2022-08-19T12:31:24;9.10;;;3.72;;
69392;SDS011;56582;44.624;20.378;2022-08-19T12:33:50;10.77;;;4.13;;
69392;SDS011;56582;44.624;20.378;2022-08-19T12:36:17;10.70;;;4.10;;
69392;SDS011;56582;44.624;20.378;2022-08-19T12:38:42;9.43;;;3.97;;
69392;SDS011;56582;44.624;20.378;2022-08-19T12:41:10;10.32;;;4.22;;
69392;SDS011;56582;44.624;20.378;2022-08-19T12:43:37;13.05;;;4.03;;
69392;SDS011;56582;44.624;20.378;2022-08-19T12:46:03;8.50;;;4.30;;
69392;SDS011;56582;44.624;20.378;2022-08-19T12:48:30;11.35;;;4.32;;
69392;SDS011;56582;44.624;20.378;2022-08-19T12:50:56;10.63;;;4.00;;
69392;SDS011;56582;44.624;20.378;2022-08-19T12:53:21;14.80;;;4.33;;
69392;SDS011;56582;44.624;20.378;2022-08-19T12:55:47;9.77;;;4.20;;
69392;SDS011;56582;44.624;20.378;2022-08-19T12:58:13;8.40;;;4.23;;
69392;SDS011;56582;44.624;20.378;2022-08-19T13:00:39;12.33;;;3.90;;
69392;SDS011;56582;44.624;20.378;2022-08-19T13:03:04;9.50;;;3.78;;
69392;SDS011;56582;44.624;20.378;2022-08-19T13:05:31;11.48;;;3.90;;
69392;SDS011;56582;44.624;20.378;2022-08-19T13:08:00;9.77;;;3.92;;
69392;SDS011;56582;44.624;20.378;2022-08-19T13:10:29;10.90;;;4.13;;
69392;SDS011;56582;44.624;20.378;2022-08-19T13:12:59;10.45;;;3.95;;
69392;SDS011;56582;44.624;20.378;2022-08-19T13:15:26;12.30;;;3.70;;
69392;SDS011;56582;44.624;20.378;2022-08-19T13:17:53;10.85;;;4.40;;
69392;SDS011;56582;44.624;20.378;2022-08-19T13:20:20;13.67;;;3.80;;
69392;SDS011;56582;44.624;20.378;2022-08-19T13:22:47;15.80;;;4.13;;
69392;SDS011;56582;44.624;20.378;2022-08-19T13:25:13;10.88;;;4.00;;
69392;SDS011;56582;44.624;20.378;2022-08-19T13:27:41;16.75;;;4.10;;
69392;SDS011;56582;44.624;20.378;2022-08-19T13:30:08;11.27;;;4.43;;
69392;SDS011;56582;44.624;20.378;2022-08-19T13:32:54;12.85;;;4.10;;
69392;SDS011;56582;44.624;20.378;2022-08-19T13:35:38;15.05;;;4.13;;
69392;SDS011;56582;44.624;20.378;2022-08-19T13:38:06;10.63;;;4.18;;
69392;SDS011;56582;44.624;20.378;2022-08-19T13:40:31;12.97;;;4.20;;
69392;SDS011;56582;44.624;20.378;2022-08-19T13:42:58;11.73;;;3.95;;
69392;SDS011;56582;44.624;20.378;2022-08-19T13:45:25;10.25;;;4.07;;
69392;SDS011;56582;44.624;20.378;2022-08-19T13:47:52;9.57;;;3.43;;
69392;SDS011;56582;44.624;20.378;2022-08-19T13:50:20;10.18;;;4.05;;
69392;SDS011;56582;44.624;20.378;2022-08-19T13:52:53;9.48;;;4.15;;
69392;SDS011;56582;44.624;20.378;2022-08-19T13:55:19;15.07;;;4.10;;
69392;SDS011;56582;44.624;20.378;2022-08-19T13:57:45;12.47;;;3.80;;
69392;SDS011;56582;44.624;20.378;2022-08-19T14:00:14;10.37;;;4.23;;
69392;SDS011;56582;44.624;20.378;2022-08-19T14:02:43;14.18;;;4.03;;
69392;SDS011;56582;44.624;20.378;2022-08-19T14:05:11;13.60;;;4.00;;
69392;SDS011;56582;44.624;20.378;2022-08-19T14:07:38;13.70;;;3.78;;
69392;SDS011;56582;44.624;20.378;2022-08-19T14:10:05;12.27;;;4.05;;
69392;SDS011;56582;44.624;20.378;2022-08-19T14:12:32;9.57;;;3.45;;
69392;SDS011;56582;44.624;20.378;2022-08-19T14:14:58;13.07;;;4.03;;
69392;SDS011;56582;44.624;20.378;2022-08-19T14:17:24;11.00;;;3.87;;
69392;SDS011;56582;44.624;20.378;2022-08-19T14:19:50;12.30;;;3.80;;
69392;SDS011;56582;44.624;20.378;2022-08-19T14:22:21;18.40;;;3.85;;
69392;SDS011;56582;44.624;20.378;2022-08-19T14:24:47;18.57;;;3.70;;
69392;SDS011;56582;44.624;20.378;2022-08-19T14:27:13;12.88;;;3.90;;
69392;SDS011;56582;44.624;20.378;2022-08-19T14:29:39;13.45;;;3.80;;
69392;SDS011;56582;44.624;20.378;2022-08-19T14:32:05;10.57;;;4.23;;
69392;SDS011;56582;44.624;20.378;2022-08-19T14:34:30;12.27;;;4.23;;
69392;SDS011;56582;44.624;20.378;2022-08-19T14:36:56;21.92;;;4.80;;
69392;SDS011;56582;44.624;20.378;2022-08-19T14:39:22;13.50;;;5.13;;
69392;SDS011;56582;44.624;20.378;2022-08-19T14:41:47;16.63;;;6.00;;
69392;SDS011;56582;44.624;20.378;2022-08-19T14:44:13;16.67;;;6.00;;